Impacts METAR Board INFO
IDs:

KDCA - Washington/National, VA, US

Updated at: 0822 UTC 18 Nov 2017
Potential Impact None Slight Moderate High
Time17/20Z 17/21Z 17/22Z 17/23Z 18/00Z 18/01Z 18/02Z 18/03Z 18/04Z 18/05Z 18/06Z 18/07Z 18/08Z
VIS10 10 10 10 10 10 10 10 10 10 10 10 10
CIG250 250 -- -- -- -- 250 250 250 250 250 -- 250
CoverBKNBKNSCTSCTFEWSCTBKNBKNOVCBKNBKNSCTBKN
FltCatVFRVFRVFRVFRVFRVFRVFRVFRVFRVFRVFRVFRVFR
WX--------------------------
WDir32031029030000200220220200200190200
WSpd8 9 6 3 0 0 3 3 5 4 4 6 4
WGst-- -- -- -- -- -- -- -- -- -- -- -- --
Raw hourly METARs
KDCA 171952Z 32008KT 10SM BKN250 11/M03 A3016 RMK AO2 SLP213 T01111028
KDCA 172052Z 31009KT 10SM FEW100 BKN250 11/M03 A3016 RMK AO2 SLP213 T01061033 55007
KDCA 172152Z 29006KT 10SM FEW100 SCT250 10/M03 A3016 RMK AO2 SLP212 T01001033
KDCA 172252Z 30003KT 10SM FEW100 SCT250 10/M03 A3016 RMK AO2 SLP212 T01001028
KDCA 172352Z 00000KT 10SM FEW250 08/01 A3015 RMK AO2 SLP209 T00830011 10122 20072 58004
KDCA 180052Z 00000KT 10SM SCT250 06/02 A3014 RMK AO2 SLP204 T00610017
KDCA 180152Z 20003KT 10SM BKN250 07/02 A3013 RMK AO2 SLP201 T00670017
KDCA 180252Z 22003KT 10SM BKN250 06/00 A3013 RMK AO2 SLP202 T00560000 56008
KDCA 180352Z 22005KT 10SM OVC250 04/M01 A3012 RMK AO2 SLP199 T00441006
KDCA 180452Z 20004KT 10SM BKN250 05/01 A3011 RMK AO2 SLP195 T00500006 401220044
KDCA 180552Z 20004KT 10SM BKN250 04/02 A3008 RMK AO2 SLP186 T00440022 10083 20044 58015
KDCA 180652Z 19006KT 10SM SCT250 04/02 A3006 RMK AO2 SLP178 T00390017
KDCA 180752Z 20004KT 10SM BKN250 04/01 A3003 RMK AO2 SLP169 T00390011